sensor_id;sensor_type;location;lat;lon;timestamp;pressure;altitude;pressure_sealevel;temperature;humidity
6425;BME280;12193;42.642;23.384;2023-05-14T03:08:25;94882.88;;;12.23;87.02
6425;BME280;12193;42.642;23.384;2023-05-14T03:10:54;94880.09;;;12.18;87.17
6425;BME280;12193;42.642;23.384;2023-05-14T03:13:23;94872.06;;;12.13;87.68
6425;BME280;12193;42.642;23.384;2023-05-14T03:15:53;94857.44;;;12.06;87.55
6425;BME280;12193;42.642;23.384;2023-05-14T03:18:22;94854.41;;;12.15;87.38
6425;BME280;12193;42.642;23.384;2023-05-14T03:20:53;94849.00;;;12.10;87.52
6425;BME280;12193;42.642;23.384;2023-05-14T03:23:25;94848.41;;;12.08;88.22
6425;BME280;12193;42.642;23.384;2023-05-14T03:25:54;94865.03;;;12.01;89.51
6425;BME280;12193;42.642;23.384;2023-05-14T03:28:23;94869.03;;;11.90;90.49
6425;BME280;12193;42.642;23.384;2023-05-14T03:30:53;94865.22;;;11.80;90.62
6425;BME280;12193;42.642;23.384;2023-05-14T03:33:22;94869.81;;;11.71;93.55
6425;BME280;12193;42.642;23.384;2023-05-14T03:35:51;94869.81;;;11.58;95.99
6425;BME280;12193;42.642;23.384;2023-05-14T03:38:20;94880.13;;;11.39;97.88
6425;BME280;12193;42.642;23.384;2023-05-14T03:40:53;94889.31;;;11.29;100.00
6425;BME280;12193;42.642;23.384;2023-05-14T03:43:23;94891.69;;;11.24;100.00
6425;BME280;12193;42.642;23.384;2023-05-14T03:45:52;94882.88;;;11.18;100.00
6425;BME280;12193;42.642;23.384;2023-05-14T03:48:21;94874.69;;;11.21;100.00
6425;BME280;12193;42.642;23.384;2023-05-14T03:50:51;94874.06;;;11.13;100.00
6425;BME280;12193;42.642;23.384;2023-05-14T03:53:20;94865.06;;;11.22;100.00
6425;BME280;12193;42.642;23.384;2023-05-14T03:55:52;94884.91;;;11.29;100.00
6425;BME280;12193;42.642;23.384;2023-05-14T03:58:21;94875.31;;;11.36;100.00
6425;BME280;12193;42.642;23.384;2023-05-14T04:00:50;94880.72;;;11.35;100.00
6425;BME280;12193;42.642;23.384;2023-05-14T04:03:20;94885.34;;;11.39;100.00
6425;BME280;12193;42.642;23.384;2023-05-14T04:05:50;94879.53;;;11.37;100.00
6425;BME280;12193;42.642;23.384;2023-05-14T04:08:19;94877.06;;;11.23;100.00
6425;BME280;12193;42.642;23.384;2023-05-14T04:10:51;94877.28;;;11.28;100.00
6425;BME280;12193;42.642;23.384;2023-05-14T04:13:21;94877.28;;;11.28;100.00
6425;BME280;12193;42.642;23.384;2023-05-14T04:15:50;94882.34;;;11.36;100.00
6425;BME280;12193;42.642;23.384;2023-05-14T04:18:19;94889.53;;;11.40;100.00
6425;BME280;12193;42.642;23.384;2023-05-14T04:20:48;94884.56;;;11.38;100.00
6425;BME280;12193;42.642;23.384;2023-05-14T04:23:18;94887.56;;;11.48;100.00
6425;BME280;12193;42.642;23.384;2023-05-14T04:25:47;94902.19;;;11.49;100.00
6425;BME280;12193;42.642;23.384;2023-05-14T04:28:19;94892.00;;;11.48;100.00
6425;BME280;12193;42.642;23.384;2023-05-14T04:30:48;94901.78;;;11.46;100.00
6425;BME280;12193;42.642;23.384;2023-05-14T04:33:17;94910.78;;;11.43;100.00
6425;BME280;12193;42.642;23.384;2023-05-14T04:35:47;94912.19;;;11.39;100.00
6425;BME280;12193;42.642;23.384;2023-05-14T04:38:17;94910.16;;;11.35;100.00
6425;BME280;12193;42.642;23.384;2023-05-14T04:40:46;94916.97;;;11.36;100.00
6425;BME280;12193;42.642;23.384;2023-05-14T04:43:18;94924.94;;;11.28;100.00
6425;BME280;12193;42.642;23.384;2023-05-14T04:45:47;94919.69;;;11.22;100.00
6425;BME280;12193;42.642;23.384;2023-05-14T04:48:17;94925.69;;;11.09;100.00
6425;BME280;12193;42.642;23.384;2023-05-14T04:50:46;94925.06;;;11.07;100.00
6425;BME280;12193;42.642;23.384;2023-05-14T04:53:16;94950.97;;;10.94;100.00
6425;BME280;12193;42.642;23.384;2023-05-14T04:55:45;94923.78;;;10.90;100.00
6425;BME280;12193;42.642;23.384;2023-05-14T04:58:14;94950.56;;;10.91;100.00
6425;BME280;12193;42.642;23.384;2023-05-14T05:00:46;94938.28;;;10.78;100.00
6425;BME280;12193;42.642;23.384;2023-05-14T05:03:16;94943.25;;;10.73;100.00
6425;BME280;12193;42.642;23.384;2023-05-14T05:05:45;94949.00;;;10.62;100.00
6425;BME280;12193;42.642;23.384;2023-05-14T05:08:14;94945.91;;;10.52;100.00
6425;BME280;12193;42.642;23.384;2023-05-14T05:10:43;94945.47;;;10.42;100.00
6425;BME280;12193;42.642;23.384;2023-05-14T05:13:12;94955.31;;;10.26;100.00
6425;BME280;12193;42.642;23.384;2023-05-14T05:15:42;94965.41;;;10.15;100.00
6425;BME280;12193;42.642;23.384;2023-05-14T05:18:14;94982.59;;;10.16;100.00
6425;BME280;12193;42.642;23.384;2023-05-14T05:20:43;94976.91;;;10.06;100.00
6425;BME280;12193;42.642;23.384;2023-05-14T05:23:13;94984.47;;;10.01;100.00
6425;BME280;12193;42.642;23.384;2023-05-14T05:25:42;94998.13;;;9.95;100.00
6425;BME280;12193;42.642;23.384;2023-05-14T05:28:11;95003.16;;;9.96;100.00
6425;BME280;12193;42.642;23.384;2023-05-14T05:30:41;94994.50;;;9.89;100.00
6425;BME280;12193;42.642;23.384;2023-05-14T05:33:11;94994.44;;;9.83;100.00
6425;BME280;12193;42.642;23.384;2023-05-14T05:35:43;94992.63;;;9.83;100.00
6425;BME280;12193;42.642;23.384;2023-05-14T05:38:13;95003.75;;;9.77;100.00
6425;BME280;12193;42.642;23.384;2023-05-14T05:40:43;95010.09;;;9.75;100.00
6425;BME280;12193;42.642;23.384;2023-05-14T05:43:13;95003.88;;;9.69;100.00
6425;BME280;12193;42.642;23.384;2023-05-14T05:45:43;95010.47;;;9.72;100.00
6425;BME280;12193;42.642;23.384;2023-05-14T05:48:12;95002.53;;;9.73;100.00
6425;BME280;12193;42.642;23.384;2023-05-14T05:50:46;95012.72;;;9.75;100.00
6425;BME280;12193;42.642;23.384;2023-05-14T05:53:16;95007.72;;;9.73;100.00
6425;BME280;12193;42.642;23.384;2023-05-14T05:55:46;95008.22;;;9.69;100.00
6425;BME280;12193;42.642;23.384;2023-05-14T05:58:16;95021.22;;;9.69;100.00
6425;BME280;12193;42.642;23.384;2023-05-14T06:00:46;95001.91;;;9.71;100.00
6425;BME280;12193;42.642;23.384;2023-05-14T06:03:15;94996.88;;;9.70;100.00
6425;BME280;12193;42.642;23.384;2023-05-14T06:05:47;94993.13;;;9.72;100.00
6425;BME280;12193;42.642;23.384;2023-05-14T06:08:17;94990.53;;;9.72;100.00
6425;BME280;12193;42.642;23.384;2023-05-14T06:10:46;94989.09;;;9.70;100.00
6425;BME280;12193;42.642;23.384;2023-05-14T06:13:16;94990.47;;;9.66;100.00
6425;BME280;12193;42.642;23.384;2023-05-14T06:15:45;94996.06;;;9.69;100.00
6425;BME280;12193;42.642;23.384;2023-05-14T06:18:14;95000.84;;;9.66;100.00
6425;BME280;12193;42.642;23.384;2023-05-14T06:20:46;94991.44;;;9.65;100.00
6425;BME280;12193;42.642;23.384;2023-05-14T06:23:16;94988.84;;;9.65;100.00
6425;BME280;12193;42.642;23.384;2023-05-14T06:25:45;94981.22;;;9.63;100.00
6425;BME280;12193;42.642;23.384;2023-05-14T06:28:14;94987.66;;;9.67;100.00
6425;BME280;12193;42.642;23.384;2023-05-14T06:30:43;94982.06;;;9.64;100.00
6425;BME280;12193;42.642;23.384;2023-05-14T06:33:12;94986.41;;;9.63;100.00
6425;BME280;12193;42.642;23.384;2023-05-14T06:35:42;94994.91;;;9.72;100.00
6425;BME280;12193;42.642;23.384;2023-05-14T06:38:13;95004.75;;;9.76;100.00
6425;BME280;12193;42.642;23.384;2023-05-14T06:40:43;95010.53;;;9.57;100.00
6425;BME280;12193;42.642;23.384;2023-05-14T06:43:12;94995.44;;;9.67;100.00
6425;BME280;12193;42.642;23.384;2023-05-14T06:45:41;94996.56;;;9.79;100.00
6425;BME280;12193;42.642;23.384;2023-05-14T06:48:11;94993.63;;;9.82;100.00
6425;BME280;12193;42.642;23.384;2023-05-14T06:50:40;94988.13;;;9.92;100.00
6425;BME280;12193;42.642;23.384;2023-05-14T06:53:09;94976.47;;;10.02;100.00
6425;BME280;12193;42.642;23.384;2023-05-14T06:55:41;94968.75;;;10.09;100.00
6425;BME280;12193;42.642;23.384;2023-05-14T06:58:10;94973.09;;;10.02;100.00
6425;BME280;12193;42.642;23.384;2023-05-14T07:00:39;94966.22;;;10.15;100.00
6425;BME280;12193;42.642;23.384;2023-05-14T07:03:08;94966.09;;;10.02;100.00
6425;BME280;12193;42.642;23.384;2023-05-14T07:05:37;94958.53;;;10.07;100.00
6425;BME280;12193;42.642;23.384;2023-05-14T07:08:07;94970.28;;;10.24;100.00
6425;BME280;12193;42.642;23.384;2023-05-14T07:10:36;94969.41;;;10.38;100.00
6425;BME280;12193;42.642;23.384;2023-05-14T07:13:08;94964.09;;;10.52;100.00
6425;BME280;12193;42.642;23.384;2023-05-14T07:15:37;94967.78;;;10.58;100.00
6425;BME280;12193;42.642;23.384;2023-05-14T07:18:07;94977.09;;;10.52;100.00
6425;BME280;12193;42.642;23.384;2023-05-14T07:20:36;94992.31;;;10.55;100.00
6425;BME280;12193;42.642;23.384;2023-05-14T07:23:05;95009.84;;;10.47;100.00
6425;BME280;12193;42.642;23.384;2023-05-14T07:25:35;95020.13;;;10.55;100.00
6425;BME280;12193;42.642;23.384;2023-05-14T07:28:04;95009.34;;;10.58;100.00
6425;BME280;12193;42.642;23.384;2023-05-14T07:30:36;95006.88;;;10.50;100.00
6425;BME280;12193;42.642;23.384;2023-05-14T07:33:05;95004.34;;;10.35;100.00
6425;BME280;12193;42.642;23.384;2023-05-14T07:35:34;95000.75;;;9.95;100.00
6425;BME280;12193;42.642;23.384;2023-05-14T07:38:03;95004.19;;;9.81;100.00
6425;BME280;12193;42.642;23.384;2023-05-14T07:40:33;94999.28;;;9.71;100.00
6425;BME280;12193;42.642;23.384;2023-05-14T07:43:02;94990.47;;;9.66;100.00
6425;BME280;12193;42.642;23.384;2023-05-14T07:45:32;94993.59;;;9.61;100.00
6425;BME280;12193;42.642;23.384;2023-05-14T07:48:03;94999.31;;;9.57;100.00
6425;BME280;12193;42.642;23.384;2023-05-14T07:50:33;95003.78;;;9.63;100.00
6425;BME280;12193;42.642;23.384;2023-05-14T07:53:02;94994.41;;;9.47;100.00
6425;BME280;12193;42.642;23.384;2023-05-14T07:55:31;95003.75;;;9.42;100.00
6425;BME280;12193;42.642;23.384;2023-05-14T07:58:01;95016.44;;;9.51;100.00
6425;BME280;12193;42.642;23.384;2023-05-14T08:00:30;95030.38;;;9.65;100.00
6425;BME280;12193;42.642;23.384;2023-05-14T08:02:59;95021.47;;;9.74;100.00
6425;BME280;12193;42.642;23.384;2023-05-14T08:05:31;95011.34;;;9.79;100.00
6425;BME280;12193;42.642;23.384;2023-05-14T08:08:00;94997.84;;;9.69;100.00
6425;BME280;12193;42.642;23.384;2023-05-14T08:10:30;95010.66;;;9.70;100.00
6425;BME280;12193;42.642;23.384;2023-05-14T08:12:59;95004.00;;;9.82;100.00
6425;BME280;12193;42.642;23.384;2023-05-14T08:15:28;59546.94;;;-140.48;100.00
6425;BME280;12193;42.642;23.384;2023-05-14T08:17:57;59546.94;;;-140.48;100.00
6425;BME280;12193;42.642;23.384;2023-05-14T08:20:31;59546.94;;;-140.48;100.00
6425;BME280;12193;42.642;23.384;2023-05-14T08:23:00;59546.94;;;-140.48;100.00
6425;BME280;12193;42.642;23.384;2023-05-14T08:25:30;59546.94;;;-140.48;100.00
6425;BME280;12193;42.642;23.384;2023-05-14T08:27:59;59546.94;;;-140.48;100.00
6425;BME280;12193;42.642;23.384;2023-05-14T08:30:29;59546.94;;;-140.48;100.00
6425;BME280;12193;42.642;23.384;2023-05-14T08:32:58;59546.94;;;-140.48;100.00
6425;BME280;12193;42.642;23.384;2023-05-14T08:35:27;59546.94;;;-140.48;100.00
6425;BME280;12193;42.642;23.384;2023-05-14T08:37:59;59546.94;;;-140.48;100.00
6425;BME280;12193;42.642;23.384;2023-05-14T08:40:29;59546.94;;;-140.48;100.00
6425;BME280;12193;42.642;23.384;2023-05-14T08:42:59;59546.94;;;-140.48;100.00
6425;BME280;12193;42.642;23.384;2023-05-14T08:45:29;59546.94;;;-140.48;100.00
6425;BME280;12193;42.642;23.384;2023-05-14T08:48:00;59546.94;;;-140.48;100.00
6425;BME280;12193;42.642;23.384;2023-05-14T08:50:34;59546.94;;;-140.48;100.00
6425;BME280;12193;42.642;23.384;2023-05-14T08:53:06;59546.94;;;-140.48;100.00
6425;BME280;12193;42.642;23.384;2023-05-14T08:55:36;59546.94;;;-140.48;100.00
6425;BME280;12193;42.642;23.384;2023-05-14T08:58:05;59546.94;;;-140.48;100.00
6425;BME280;12193;42.642;23.384;2023-05-14T09:00:34;59546.94;;;-140.48;100.00
6425;BME280;12193;42.642;23.384;2023-05-14T09:03:04;59546.94;;;-140.48;100.00
6425;BME280;12193;42.642;23.384;2023-05-14T09:05:34;59546.94;;;-140.48;100.00
6425;BME280;12193;42.642;23.384;2023-05-14T09:08:06;59546.94;;;-140.48;100.00
6425;BME280;12193;42.642;23.384;2023-05-14T09:10:36;59546.94;;;-140.48;100.00
6425;BME280;12193;42.642;23.384;2023-05-14T09:13:05;59546.94;;;-140.48;100.00
6425;BME280;12193;42.642;23.384;2023-05-14T09:15:36;59546.94;;;-140.48;100.00
6425;BME280;12193;42.642;23.384;2023-05-14T09:18:06;59546.94;;;-140.48;100.00
6425;BME280;12193;42.642;23.384;2023-05-14T09:20:37;59546.94;;;-140.48;100.00
6425;BME280;12193;42.642;23.384;2023-05-14T09:23:09;59546.94;;;-140.48;100.00
6425;BME280;12193;42.642;23.384;2023-05-14T09:25:38;59546.94;;;-140.48;100.00
6425;BME280;12193;42.642;23.384;2023-05-14T09:28:08;59546.94;;;-140.48;100.00
6425;BME280;12193;42.642;23.384;2023-05-14T09:30:37;59546.94;;;-140.48;100.00
6425;BME280;12193;42.642;23.384;2023-05-14T09:33:06;59546.94;;;-140.48;100.00
6425;BME280;12193;42.642;23.384;2023-05-14T09:35:37;59546.94;;;-140.48;100.00
6425;BME280;12193;42.642;23.384;2023-05-14T09:38:11;59546.94;;;-140.48;100.00
6425;BME280;12193;42.642;23.384;2023-05-14T09:40:40;59546.94;;;-140.48;100.00
6425;BME280;12193;42.642;23.384;2023-05-14T09:43:10;59546.94;;;-140.48;100.00
6425;BME280;12193;42.642;23.384;2023-05-14T09:45:39;59546.94;;;-140.48;100.00
6425;BME280;12193;42.642;23.384;2023-05-14T09:48:09;59546.94;;;-140.48;100.00
6425;BME280;12193;42.642;23.384;2023-05-14T09:50:41;59546.94;;;-140.48;100.00
6425;BME280;12193;42.642;23.384;2023-05-14T09:53:13;59546.94;;;-140.48;100.00
6425;BME280;12193;42.642;23.384;2023-05-14T09:55:43;59546.94;;;-140.48;100.00
6425;BME280;12193;42.642;23.384;2023-05-14T09:58:12;59546.94;;;-140.48;100.00
6425;BME280;12193;42.642;23.384;2023-05-14T10:00:43;59546.94;;;-140.48;100.00
6425;BME280;12193;42.642;23.384;2023-05-14T10:03:14;59546.94;;;-140.48;100.00
6425;BME280;12193;42.642;23.384;2023-05-14T10:05:44;59546.94;;;-140.48;100.00
6425;BME280;12193;42.642;23.384;2023-05-14T10:08:23;59546.94;;;-140.48;100.00
6425;BME280;12193;42.642;23.384;2023-05-14T10:10:53;59546.94;;;-140.48;100.00
6425;BME280;12193;42.642;23.384;2023-05-14T10:13:29;59546.94;;;-140.48;100.00
6425;BME280;12193;42.642;23.384;2023-05-14T10:16:04;59546.94;;;-140.48;100.00
6425;BME280;12193;42.642;23.384;2023-05-14T10:18:39;59546.94;;;-140.48;100.00
6425;BME280;12193;42.642;23.384;2023-05-14T10:21:13;59546.94;;;-140.48;100.00
6425;BME280;12193;42.642;23.384;2023-05-14T10:23:46;59546.94;;;-140.48;100.00
6425;BME280;12193;42.642;23.384;2023-05-14T10:26:17;59546.94;;;-140.48;100.00
6425;BME280;12193;42.642;23.384;2023-05-14T10:28:46;59546.94;;;-140.48;100.00
6425;BME280;12193;42.642;23.384;2023-05-14T10:31:15;59546.94;;;-140.48;100.00
6425;BME280;12193;42.642;23.384;2023-05-14T10:33:48;59546.94;;;-140.48;100.00
6425;BME280;12193;42.642;23.384;2023-05-14T10:36:20;59546.94;;;-140.48;100.00
6425;BME280;12193;42.642;23.384;2023-05-14T10:38:56;59546.94;;;-140.48;100.00
6425;BME280;12193;42.642;23.384;2023-05-14T10:41:25;59546.94;;;-140.48;100.00
6425;BME280;12193;42.642;23.384;2023-05-14T10:43:56;59546.94;;;-140.48;100.00
6425;BME280;12193;42.642;23.384;2023-05-14T10:46:26;59546.94;;;-140.48;100.00
6425;BME280;12193;42.642;23.384;2023-05-14T10:48:55;59546.94;;;-140.48;100.00
6425;BME280;12193;42.642;23.384;2023-05-14T10:51:25;59546.94;;;-140.48;100.00
6425;BME280;12193;42.642;23.384;2023-05-14T10:53:59;59546.94;;;-140.48;100.00
6425;BME280;12193;42.642;23.384;2023-05-14T10:56:29;59546.94;;;-140.48;100.00
6425;BME280;12193;42.642;23.384;2023-05-14T10:58:59;59546.94;;;-140.48;100.00
6425;BME280;12193;42.642;23.384;2023-05-14T11:01:28;59546.94;;;-140.48;100.00
6425;BME280;12193;42.642;23.384;2023-05-14T11:03:57;59546.94;;;-140.48;100.00
6425;BME280;12193;42.642;23.384;2023-05-14T11:06:27;59546.94;;;-140.48;100.00
6425;BME280;12193;42.642;23.384;2023-05-14T11:09:00;59546.94;;;-140.48;100.00
6425;BME280;12193;42.642;23.384;2023-05-14T11:11:29;59546.94;;;-140.48;100.00
6425;BME280;12193;42.642;23.384;2023-05-14T11:13:59;59546.94;;;-140.48;100.00
6425;BME280;12193;42.642;23.384;2023-05-14T11:16:30;59546.94;;;-140.48;100.00
6425;BME280;12193;42.642;23.384;2023-05-14T11:19:03;59546.94;;;-140.48;100.00
6425;BME280;12193;42.642;23.384;2023-05-14T11:21:32;59546.94;;;-140.48;100.00
6425;BME280;12193;42.642;23.384;2023-05-14T11:24:05;59546.94;;;-140.48;100.00
6425;BME280;12193;42.642;23.384;2023-05-14T11:26:34;59546.94;;;-140.48;100.00
6425;BME280;12193;42.642;23.384;2023-05-14T11:29:04;59546.94;;;-140.48;100.00
6425;BME280;12193;42.642;23.384;2023-05-14T11:31:34;59546.94;;;-140.48;100.00
6425;BME280;12193;42.642;23.384;2023-05-14T11:34:05;59546.94;;;-140.48;100.00
6425;BME280;12193;42.642;23.384;2023-05-14T11:36:36;59546.94;;;-140.48;100.00
6425;BME280;12193;42.642;23.384;2023-05-14T11:39:07;59546.94;;;-140.48;100.00
6425;BME280;12193;42.642;23.384;2023-05-14T11:41:42;59546.94;;;-140.48;100.00
6425;BME280;12193;42.642;23.384;2023-05-14T11:44:12;59546.94;;;-140.48;100.00
6425;BME280;12193;42.642;23.384;2023-05-14T11:46:53;59546.94;;;-140.48;100.00
6425;BME280;12193;42.642;23.384;2023-05-14T11:49:22;59546.94;;;-140.48;100.00
6425;BME280;12193;42.642;23.384;2023-05-14T11:51:56;59546.94;;;-140.48;100.00
6425;BME280;12193;42.642;23.384;2023-05-14T11:54:29;59546.94;;;-140.48;100.00
6425;BME280;12193;42.642;23.384;2023-05-14T11:57:00;59546.94;;;-140.48;100.00
6425;BME280;12193;42.642;23.384;2023-05-14T11:59:30;59546.94;;;-140.48;100.00
6425;BME280;12193;42.642;23.384;2023-05-14T12:02:01;59546.94;;;-140.48;100.00
6425;BME280;12193;42.642;23.384;2023-05-14T12:04:30;59546.94;;;-140.48;100.00
6425;BME280;12193;42.642;23.384;2023-05-14T12:07:06;59546.94;;;-140.48;100.00
6425;BME280;12193;42.642;23.384;2023-05-14T12:09:40;59546.94;;;-140.48;100.00
6425;BME280;12193;42.642;23.384;2023-05-14T12:12:17;59546.94;;;-140.48;100.00
6425;BME280;12193;42.642;23.384;2023-05-14T12:14:47;59546.94;;;-140.48;100.00
6425;BME280;12193;42.642;23.384;2023-05-14T12:17:18;59546.94;;;-140.48;100.00
6425;BME280;12193;42.642;23.384;2023-05-14T12:19:49;59546.94;;;-140.48;100.00
6425;BME280;12193;42.642;23.384;2023-05-14T12:22:20;59546.94;;;-140.48;100.00
6425;BME280;12193;42.642;23.384;2023-05-14T12:24:56;59546.94;;;-140.48;100.00
6425;BME280;12193;42.642;23.384;2023-05-14T12:27:27;59546.94;;;-140.48;100.00
6425;BME280;12193;42.642;23.384;2023-05-14T12:30:00;59546.94;;;-140.48;100.00
6425;BME280;12193;42.642;23.384;2023-05-14T12:32:30;59546.94;;;-140.48;100.00
6425;BME280;12193;42.642;23.384;2023-05-14T12:35:00;59546.94;;;-140.48;100.00
6425;BME280;12193;42.642;23.384;2023-05-14T12:37:29;59546.94;;;-140.48;100.00
6425;BME280;12193;42.642;23.384;2023-05-14T12:40:02;59546.94;;;-140.48;100.00
6425;BME280;12193;42.642;23.384;2023-05-14T12:42:34;59546.94;;;-140.48;100.00
6425;BME280;12193;42.642;23.384;2023-05-14T12:45:04;59546.94;;;-140.48;100.00
6425;BME280;12193;42.642;23.384;2023-05-14T12:47:33;59546.94;;;-140.48;100.00
6425;BME280;12193;42.642;23.384;2023-05-14T12:50:05;59546.94;;;-140.48;100.00
6425;BME280;12193;42.642;23.384;2023-05-14T12:52:34;59546.94;;;-140.48;100.00
6425;BME280;12193;42.642;23.384;2023-05-14T12:55:07;59546.94;;;-140.48;100.00
6425;BME280;12193;42.642;23.384;2023-05-14T12:57:37;59546.94;;;-140.48;100.00
6425;BME280;12193;42.642;23.384;2023-05-14T13:00:07;59546.94;;;-140.48;100.00
6425;BME280;12193;42.642;23.384;2023-05-14T13:02:38;59546.94;;;-140.48;100.00
6425;BME280;12193;42.642;23.384;2023-05-14T13:05:07;59546.94;;;-140.48;100.00
6425;BME280;12193;42.642;23.384;2023-05-14T13:07:37;59546.94;;;-140.48;100.00
6425;BME280;12193;42.642;23.384;2023-05-14T13:10:09;59546.94;;;-140.48;100.00
6425;BME280;12193;42.642;23.384;2023-05-14T13:12:39;59546.94;;;-140.48;100.00
6425;BME280;12193;42.642;23.384;2023-05-14T13:15:09;59546.94;;;-140.48;100.00
6425;BME280;12193;42.642;23.384;2023-05-14T13:17:39;59546.94;;;-140.48;100.00
6425;BME280;12193;42.642;23.384;2023-05-14T13:20:09;59546.94;;;-140.48;100.00
6425;BME280;12193;42.642;23.384;2023-05-14T13:22:38;59546.94;;;-140.48;100.00
6425;BME280;12193;42.642;23.384;2023-05-14T13:25:10;59546.94;;;-140.48;100.00
6425;BME280;12193;42.642;23.384;2023-05-14T13:27:39;59546.94;;;-140.48;100.00
6425;BME280;12193;42.642;23.384;2023-05-14T13:30:10;59546.94;;;-140.48;100.00
6425;BME280;12193;42.642;23.384;2023-05-14T13:32:39;59546.94;;;-140.48;100.00
6425;BME280;12193;42.642;23.384;2023-05-14T13:35:09;59546.94;;;-140.48;100.00
6425;BME280;12193;42.642;23.384;2023-05-14T13:37:38;59546.94;;;-140.48;100.00
6425;BME280;12193;42.642;23.384;2023-05-14T13:40:11;59546.94;;;-140.48;100.00
6425;BME280;12193;42.642;23.384;2023-05-14T13:42:40;59546.94;;;-140.48;100.00
6425;BME280;12193;42.642;23.384;2023-05-14T13:45:11;59546.94;;;-140.48;100.00
6425;BME280;12193;42.642;23.384;2023-05-14T13:47:40;59546.94;;;-140.48;100.00
6425;BME280;12193;42.642;23.384;2023-05-14T13:50:10;59546.94;;;-140.48;100.00
6425;BME280;12193;42.642;23.384;2023-05-14T13:52:39;59546.94;;;-140.48;100.00
6425;BME280;12193;42.642;23.384;2023-05-14T13:55:11;59546.94;;;-140.48;100.00
6425;BME280;12193;42.642;23.384;2023-05-14T13:57:42;59546.94;;;-140.48;100.00
6425;BME280;12193;42.642;23.384;2023-05-14T14:00:13;59546.94;;;-140.48;100.00
6425;BME280;12193;42.642;23.384;2023-05-14T14:02:42;59546.94;;;-140.48;100.00
6425;BME280;12193;42.642;23.384;2023-05-14T14:05:11;59546.94;;;-140.48;100.00
6425;BME280;12193;42.642;23.384;2023-05-14T14:07:41;59546.94;;;-140.48;100.00
6425;BME280;12193;42.642;23.384;2023-05-14T14:10:13;59546.94;;;-140.48;100.00
6425;BME280;12193;42.642;23.384;2023-05-14T14:12:42;59546.94;;;-140.48;100.00
6425;BME280;12193;42.642;23.384;2023-05-14T14:15:12;59546.94;;;-140.48;100.00
6425;BME280;12193;42.642;23.384;2023-05-14T14:17:41;59546.94;;;-140.48;100.00
6425;BME280;12193;42.642;23.384;2023-05-14T14:20:11;59546.94;;;-140.48;100.00
6425;BME280;12193;42.642;23.384;2023-05-14T14:22:41;59546.94;;;-140.48;100.00
6425;BME280;12193;42.642;23.384;2023-05-14T14:25:14;59546.94;;;-140.48;100.00
6425;BME280;12193;42.642;23.384;2023-05-14T14:27:43;59546.94;;;-140.48;100.00
6425;BME280;12193;42.642;23.384;2023-05-14T14:30:13;59546.94;;;-140.48;100.00
6425;BME280;12193;42.642;23.384;2023-05-14T14:32:44;59546.94;;;-140.48;100.00
6425;BME280;12193;42.642;23.384;2023-05-14T14:35:15;59546.94;;;-140.48;100.00
6425;BME280;12193;42.642;23.384;2023-05-14T14:37:45;59546.94;;;-140.48;100.00
6425;BME280;12193;42.642;23.384;2023-05-14T14:40:21;59546.94;;;-140.48;100.00
6425;BME280;12193;42.642;23.384;2023-05-14T14:42:51;59546.94;;;-140.48;100.00
6425;BME280;12193;42.642;23.384;2023-05-14T14:45:21;59546.94;;;-140.48;100.00
6425;BME280;12193;42.642;23.384;2023-05-14T14:47:50;59546.94;;;-140.48;100.00
6425;BME280;12193;42.642;23.384;2023-05-14T14:50:19;59546.94;;;-140.48;100.00
6425;BME280;12193;42.642;23.384;2023-05-14T14:52:49;59546.94;;;-140.48;100.00
6425;BME280;12193;42.642;23.384;2023-05-14T14:55:20;59546.94;;;-140.48;100.00
6425;BME280;12193;42.642;23.384;2023-05-14T14:57:50;59546.94;;;-140.48;100.00
6425;BME280;12193;42.642;23.384;2023-05-14T15:00:19;59546.94;;;-140.48;100.00
6425;BME280;12193;42.642;23.384;2023-05-14T15:02:48;59546.94;;;-140.48;100.00
6425;BME280;12193;42.642;23.384;2023-05-14T15:05:18;59546.94;;;-140.48;100.00
6425;BME280;12193;42.642;23.384;2023-05-14T15:07:47;59546.94;;;-140.48;100.00
6425;BME280;12193;42.642;23.384;2023-05-14T15:10:16;59546.94;;;-140.48;100.00
6425;BME280;12193;42.642;23.384;2023-05-14T15:12:48;59546.94;;;-140.48;100.00
6425;BME280;12193;42.642;23.384;2023-05-14T15:15:17;59546.94;;;-140.48;100.00
6425;BME280;12193;42.642;23.384;2023-05-14T15:17:47;59546.94;;;-140.48;100.00
6425;BME280;12193;42.642;23.384;2023-05-14T15:20:16;59546.94;;;-140.48;100.00
6425;BME280;12193;42.642;23.384;2023-05-14T15:22:45;59546.94;;;-140.48;100.00
6425;BME280;12193;42.642;23.384;2023-05-14T15:25:18;59546.94;;;-140.48;100.00
6425;BME280;12193;42.642;23.384;2023-05-14T15:27:50;59546.94;;;-140.48;100.00
6425;BME280;12193;42.642;23.384;2023-05-14T15:30:19;59546.94;;;-140.48;100.00
6425;BME280;12193;42.642;23.384;2023-05-14T15:32:48;59546.94;;;-140.48;100.00
6425;BME280;12193;42.642;23.384;2023-05-14T15:35:18;59546.94;;;-140.48;100.00
6425;BME280;12193;42.642;23.384;2023-05-14T15:37:48;59546.94;;;-140.48;100.00
6425;BME280;12193;42.642;23.384;2023-05-14T15:40:18;59546.94;;;-140.48;100.00
6425;BME280;12193;42.642;23.384;2023-05-14T15:42:50;59546.94;;;-140.48;100.00
6425;BME280;12193;42.642;23.384;2023-05-14T15:45:19;59546.94;;;-140.48;100.00
6425;BME280;12193;42.642;23.384;2023-05-14T15:47:48;59546.94;;;-140.48;100.00
6425;BME280;12193;42.642;23.384;2023-05-14T15:50:18;59546.94;;;-140.48;100.00
6425;BME280;12193;42.642;23.384;2023-05-14T15:52:47;59546.94;;;-140.48;100.00
6425;BME280;12193;42.642;23.384;2023-05-14T15:55:17;59546.94;;;-140.48;100.00
6425;BME280;12193;42.642;23.384;2023-05-14T15:57:49;59546.94;;;-140.48;100.00
6425;BME280;12193;42.642;23.384;2023-05-14T16:00:19;59546.94;;;-140.48;100.00
6425;BME280;12193;42.642;23.384;2023-05-14T16:02:50;59546.94;;;-140.48;100.00